createdAt,value
2022-10-05T00:00:04.625Z,13.31
2022-10-05T00:01:04.587Z,13.31
2022-10-05T00:02:04.694Z,13.30
2022-10-05T00:03:04.585Z,13.30
2022-10-05T00:04:04.606Z,13.31
2022-10-05T00:05:04.585Z,13.31
2022-10-05T00:06:04.559Z,13.30
2022-10-05T00:07:04.524Z,13.30
2022-10-05T00:08:04.538Z,13.28
2022-10-05T00:09:04.497Z,13.27
2022-10-05T00:10:04.506Z,13.27
2022-10-05T00:11:04.477Z,13.27
2022-10-05T00:12:04.477Z,13.25
2022-10-05T00:13:04.477Z,13.23
2022-10-05T00:14:04.450Z,13.25
2022-10-05T00:15:04.441Z,13.23
2022-10-05T00:16:04.499Z,13.25
2022-10-05T00:17:04.480Z,13.22
2022-10-05T00:18:04.419Z,13.22
2022-10-05T00:19:04.397Z,13.20
2022-10-05T00:20:04.378Z,13.16
2022-10-05T00:21:04.357Z,13.16
2022-10-05T00:22:04.365Z,13.13
2022-10-05T00:23:04.377Z,13.12
2022-10-05T00:24:04.337Z,13.12
2022-10-05T00:25:04.323Z,13.09
2022-10-05T00:26:04.317Z,13.08
2022-10-05T00:27:04.305Z,13.08
2022-10-05T00:28:04.378Z,13.08
2022-10-05T00:29:04.277Z,13.08
2022-10-05T00:30:04.270Z,13.04
2022-10-05T00:31:04.262Z,13.04
2022-10-05T00:32:04.291Z,13.04
2022-10-05T00:33:04.238Z,13.04
2022-10-05T00:34:04.259Z,13.03
2022-10-05T00:35:04.198Z,13.01
2022-10-05T00:36:04.209Z,13.01
2022-10-05T00:37:04.190Z,13.00
2022-10-05T00:38:04.181Z,13.01
2022-10-05T00:39:04.187Z,12.98
2022-10-05T00:40:04.157Z,12.98
2022-10-05T00:41:04.138Z,12.98
2022-10-05T00:42:04.138Z,12.98
2022-10-05T00:43:04.121Z,12.95
2022-10-05T00:44:04.260Z,12.94
2022-10-05T00:45:04.110Z,12.93
2022-10-05T00:46:04.180Z,12.93
2022-10-05T00:47:04.085Z,12.90
2022-10-05T00:48:04.072Z,12.86
2022-10-05T00:49:04.070Z,12.85
2022-10-05T00:50:04.050Z,12.83
2022-10-05T00:51:04.022Z,12.82
2022-10-05T00:52:04.030Z,12.80
2022-10-05T00:53:04.009Z,12.78
2022-10-05T00:54:04.030Z,12.76
2022-10-05T00:55:03.982Z,12.78
2022-10-05T00:56:03.985Z,12.75
2022-10-05T00:57:03.962Z,12.73
2022-10-05T00:58:03.958Z,12.73
2022-10-05T00:59:03.950Z,12.72
2022-10-05T01:00:03.962Z,12.72
2022-10-05T01:01:03.938Z,12.72
2022-10-05T01:02:03.938Z,12.70
2022-10-05T01:03:03.892Z,12.70
2022-10-05T01:04:03.882Z,12.70
2022-10-05T01:05:03.890Z,12.72
2022-10-05T01:06:03.871Z,12.72
2022-10-05T01:07:03.842Z,12.72
2022-10-05T01:08:03.875Z,12.73
2022-10-05T01:09:03.846Z,12.78
2022-10-05T01:10:03.822Z,12.79
2022-10-05T01:11:03.814Z,12.80
2022-10-05T01:12:03.798Z,12.82
2022-10-05T01:13:03.780Z,12.82
2022-10-05T01:14:03.774Z,12.82
2022-10-05T01:15:03.754Z,12.82
2022-10-05T01:16:03.801Z,12.80
2022-10-05T01:17:03.742Z,12.80
2022-10-05T01:18:03.734Z,12.79
2022-10-05T01:19:03.734Z,12.79
2022-10-05T01:20:03.706Z,12.79
2022-10-05T01:21:03.702Z,12.76
2022-10-05T01:22:03.694Z,12.76
2022-10-05T01:23:03.663Z,12.79
2022-10-05T01:24:03.662Z,12.76
2022-10-05T01:25:03.643Z,12.78
2022-10-05T01:26:03.642Z,12.78
2022-10-05T01:27:03.643Z,12.76
2022-10-05T01:28:03.642Z,12.76
2022-10-05T01:29:03.606Z,12.78
2022-10-05T01:30:03.595Z,12.76
2022-10-05T01:31:03.655Z,12.75
2022-10-05T01:32:03.594Z,12.73
2022-10-05T01:33:03.567Z,12.73
2022-10-05T01:34:05.774Z,12.72
2022-10-05T01:35:04.623Z,12.72
2022-10-05T01:36:03.534Z,12.72
2022-10-05T01:37:03.515Z,12.72
2022-10-05T01:38:03.515Z,12.70
2022-10-05T01:39:03.527Z,12.70
2022-10-05T01:40:03.475Z,12.70
2022-10-05T01:41:03.455Z,12.67
2022-10-05T01:42:03.475Z,12.68
2022-10-05T01:43:03.454Z,12.65
2022-10-05T01:44:03.446Z,12.64
2022-10-05T01:45:03.414Z,12.62
2022-10-05T01:46:03.487Z,12.64
2022-10-05T01:47:03.404Z,12.62
2022-10-05T01:48:03.417Z,12.62
2022-10-05T01:49:03.366Z,12.62
2022-10-05T01:50:03.366Z,12.61
2022-10-05T01:51:03.339Z,12.61
2022-10-05T01:52:03.526Z,12.58
2022-10-05T01:53:03.334Z,12.58
2022-10-05T01:54:03.306Z,12.57
2022-10-05T01:55:03.317Z,12.55
2022-10-05T01:56:03.299Z,12.55
2022-10-05T01:57:03.279Z,12.55
2022-10-05T01:58:03.267Z,12.55
2022-10-05T01:59:03.278Z,12.55
2022-10-05T02:00:03.265Z,12.55
2022-10-05T02:01:03.273Z,12.54
2022-10-05T02:02:03.283Z,12.54
2022-10-05T02:03:03.199Z,12.53
2022-10-05T02:04:03.207Z,12.53
2022-10-05T02:05:03.473Z,12.53
2022-10-05T02:06:03.187Z,12.53
2022-10-05T02:07:03.159Z,12.50
2022-10-05T02:08:03.158Z,12.50
2022-10-05T02:09:03.159Z,12.50
2022-10-05T02:10:03.138Z,12.49
2022-10-05T02:11:03.106Z,12.53
2022-10-05T02:12:03.639Z,12.49
2022-10-05T02:13:04.491Z,12.50
2022-10-05T02:14:03.091Z,12.49
2022-10-05T02:15:03.173Z,12.49
2022-10-05T02:16:03.106Z,12.50
2022-10-05T02:17:03.053Z,12.49
2022-10-05T02:18:03.067Z,12.49
2022-10-05T02:19:03.031Z,12.49
2022-10-05T02:20:03.039Z,12.47
2022-10-05T02:21:03.021Z,12.49
2022-10-05T02:22:03.017Z,12.50
2022-10-05T02:23:02.987Z,12.49
2022-10-05T02:24:02.980Z,12.49
2022-10-05T02:25:02.972Z,12.49
2022-10-05T02:26:02.971Z,12.47
2022-10-05T02:27:02.939Z,12.46
2022-10-05T02:28:03.243Z,12.47
2022-10-05T02:29:02.912Z,12.47
2022-10-05T02:30:02.932Z,12.47
2022-10-05T02:31:02.928Z,12.46
2022-10-05T02:32:03.051Z,12.46
2022-10-05T02:33:02.876Z,12.47
2022-10-05T02:34:02.871Z,12.50
2022-10-05T02:35:02.839Z,12.50
2022-10-05T02:36:02.888Z,12.53
2022-10-05T02:37:02.820Z,12.54
2022-10-05T02:38:02.830Z,12.55
2022-10-05T02:39:02.799Z,12.58
2022-10-05T02:40:02.812Z,12.65
2022-10-05T02:41:02.799Z,12.67
2022-10-05T02:42:02.799Z,12.70
2022-10-05T02:43:02.762Z,12.73
2022-10-05T02:44:02.752Z,12.76
2022-10-05T02:45:02.756Z,12.76
2022-10-05T02:46:02.814Z,12.76
2022-10-05T02:47:02.731Z,12.80
2022-10-05T02:48:02.754Z,12.79
2022-10-05T02:49:02.884Z,12.83
2022-10-05T02:50:02.692Z,12.83
2022-10-05T02:51:02.681Z,12.85
2022-10-05T02:52:03.391Z,12.90
2022-10-05T02:53:02.655Z,12.91
2022-10-05T02:54:02.644Z,12.94
2022-10-05T02:55:02.626Z,12.98
2022-10-05T02:56:02.626Z,12.98
2022-10-05T02:57:02.597Z,13.00
2022-10-05T02:58:02.629Z,12.98
2022-10-05T02:59:02.572Z,12.97
2022-10-05T03:00:02.734Z,12.98
2022-10-05T03:01:02.605Z,12.98
2022-10-05T03:02:02.578Z,12.97
2022-10-05T03:03:02.545Z,12.97
2022-10-05T03:04:02.532Z,13.00
2022-10-05T03:05:02.503Z,13.01
2022-10-05T03:06:02.505Z,13.03
2022-10-05T03:07:02.484Z,13.03
2022-10-05T03:08:02.510Z,13.04
2022-10-05T03:09:02.476Z,13.03
2022-10-05T03:10:02.455Z,13.03
2022-10-05T03:11:02.436Z,13.01
2022-10-05T03:12:02.444Z,13.01
2022-10-05T03:13:02.424Z,13.03
2022-10-05T03:14:02.449Z,13.01
2022-10-05T03:15:02.504Z,13.01
2022-10-05T03:16:02.471Z,13.00
2022-10-05T03:17:02.381Z,13.00
2022-10-05T03:18:02.377Z,13.00
2022-10-05T03:19:02.356Z,13.00
2022-10-05T03:20:02.365Z,12.95
2022-10-05T03:21:02.324Z,12.97
2022-10-05T03:22:02.316Z,12.94
2022-10-05T03:23:02.296Z,12.93
2022-10-05T03:24:02.317Z,12.91
2022-10-05T03:25:02.303Z,12.91
2022-10-05T03:26:02.288Z,12.87
2022-10-05T03:27:02.266Z,12.85
2022-10-05T03:28:02.302Z,12.85
2022-10-05T03:29:02.284Z,12.85
2022-10-05T03:30:02.236Z,12.83
2022-10-05T03:31:02.242Z,12.82
2022-10-05T03:32:02.210Z,12.82
2022-10-05T03:33:02.197Z,12.79
2022-10-05T03:34:02.176Z,12.79
2022-10-05T03:35:02.199Z,12.79
2022-10-05T03:36:02.178Z,12.79
2022-10-05T03:37:02.149Z,12.79
2022-10-05T03:38:02.148Z,12.82
2022-10-05T03:39:02.118Z,12.80
2022-10-05T03:40:02.117Z,12.80
2022-10-05T03:41:02.117Z,12.80
2022-10-05T03:42:02.108Z,12.82
2022-10-05T03:43:02.078Z,12.85
2022-10-05T03:44:02.073Z,12.85
2022-10-05T03:45:02.083Z,12.86
2022-10-05T03:46:02.110Z,12.87
2022-10-05T03:47:02.057Z,12.87
2022-10-05T03:48:02.029Z,12.87
2022-10-05T03:49:02.026Z,12.90
2022-10-05T03:50:02.007Z,12.90
2022-10-05T03:51:02.000Z,12.91
2022-10-05T03:52:01.981Z,12.91
2022-10-05T03:53:01.990Z,12.93
2022-10-05T03:54:01.950Z,12.91
2022-10-05T03:55:01.962Z,12.93
2022-10-05T03:56:03.322Z,12.91
2022-10-05T03:57:01.949Z,12.91
2022-10-05T03:58:01.911Z,12.91
2022-10-05T03:59:01.900Z,12.90
2022-10-05T04:00:01.889Z,12.86
2022-10-05T04:01:01.922Z,12.85
2022-10-05T04:02:01.861Z,12.82
2022-10-05T04:03:01.965Z,12.80
2022-10-05T04:04:01.841Z,12.78
2022-10-05T04:05:01.851Z,12.76
2022-10-05T04:06:01.822Z,12.76
2022-10-05T04:07:01.809Z,12.75
2022-10-05T04:08:01.829Z,12.73
2022-10-05T04:09:01.793Z,12.70
2022-10-05T04:10:01.791Z,12.67
2022-10-05T04:11:01.781Z,12.67
2022-10-05T04:12:02.029Z,12.64
2022-10-05T04:13:01.753Z,12.62
2022-10-05T04:14:01.741Z,12.61
2022-10-05T04:15:01.721Z,12.58
2022-10-05T04:16:01.809Z,12.55
2022-10-05T04:17:01.701Z,12.54
2022-10-05T04:18:01.683Z,12.53
2022-10-05T04:19:01.681Z,12.50
2022-10-05T04:20:01.666Z,12.50
2022-10-05T04:21:01.661Z,12.49
2022-10-05T04:22:01.634Z,12.50
2022-10-05T04:23:01.642Z,12.53
2022-10-05T04:24:01.636Z,12.53
2022-10-05T04:25:01.616Z,12.54
2022-10-05T04:26:01.594Z,12.54
2022-10-05T04:27:01.615Z,12.53
2022-10-05T04:28:01.612Z,12.53
2022-10-05T04:29:01.573Z,12.50
2022-10-05T04:30:01.557Z,12.47
2022-10-05T04:31:01.585Z,12.47
2022-10-05T04:32:01.524Z,12.46
2022-10-05T04:33:01.524Z,12.46
2022-10-05T04:34:01.524Z,12.45
2022-10-05T04:35:01.513Z,12.45
2022-10-05T04:36:01.481Z,12.42
2022-10-05T04:37:01.482Z,12.40
2022-10-05T04:38:01.453Z,12.40
2022-10-05T04:39:01.466Z,12.39
2022-10-05T04:40:01.426Z,12.36
2022-10-05T04:41:01.547Z,12.35
2022-10-05T04:42:01.436Z,12.32
2022-10-05T04:43:01.422Z,12.32
2022-10-05T04:44:01.388Z,12.35
2022-10-05T04:45:01.409Z,12.35
2022-10-05T04:46:01.374Z,12.35
2022-10-05T04:47:01.397Z,12.35
2022-10-05T04:48:01.334Z,12.35
2022-10-05T04:49:01.338Z,12.36
2022-10-05T04:50:01.340Z,12.36
2022-10-05T04:51:01.314Z,12.37
2022-10-05T04:52:01.294Z,12.36
2022-10-05T04:53:01.302Z,12.39
2022-10-05T04:54:01.276Z,12.39
2022-10-05T04:55:01.288Z,12.39
2022-10-05T04:56:01.274Z,12.42
2022-10-05T04:57:01.254Z,12.45
2022-10-05T04:58:01.227Z,12.46
2022-10-05T04:59:01.240Z,12.45
2022-10-05T05:00:01.228Z,12.47
2022-10-05T05:01:01.488Z,12.47
2022-10-05T05:02:01.187Z,12.45
2022-10-05T05:03:01.202Z,12.45
2022-10-05T05:04:01.225Z,12.46
2022-10-05T05:05:01.156Z,12.53
2022-10-05T05:06:18.047Z,12.55
2022-10-05T05:07:02.147Z,12.58
2022-10-05T05:08:01.122Z,12.61
2022-10-05T05:09:01.108Z,12.62
2022-10-05T05:10:01.087Z,12.60
2022-10-05T05:11:01.107Z,12.55
2022-10-05T05:12:01.075Z,12.53
2022-10-05T05:13:01.099Z,12.53
2022-10-05T05:14:01.047Z,12.50
2022-10-05T05:15:01.050Z,12.49
2022-10-05T05:16:01.071Z,12.46
2022-10-05T05:17:01.060Z,12.46
2022-10-05T05:18:01.000Z,12.43
2022-10-05T05:19:01.007Z,12.42
2022-10-05T05:20:00.978Z,12.42
2022-10-05T05:21:01.219Z,12.37
2022-10-05T05:22:00.974Z,12.39
2022-10-05T05:23:00.967Z,12.42
2022-10-05T05:24:00.943Z,12.40
2022-10-05T05:25:00.926Z,12.43
2022-10-05T05:26:00.911Z,12.47
2022-10-05T05:27:00.919Z,12.46
2022-10-05T05:28:00.904Z,12.47
2022-10-05T05:29:00.901Z,12.47
2022-10-05T05:30:00.868Z,12.47
2022-10-05T05:31:00.933Z,12.49
2022-10-05T05:32:00.851Z,12.53
2022-10-05T05:33:00.876Z,12.53
2022-10-05T05:34:00.819Z,12.55
2022-10-05T05:35:00.827Z,12.57
2022-10-05T05:36:00.799Z,12.57
2022-10-05T05:37:00.799Z,12.58
2022-10-05T05:38:00.833Z,12.61
2022-10-05T05:39:00.792Z,12.61
2022-10-05T05:40:08.131Z,12.61
2022-10-05T05:41:01.111Z,12.60
2022-10-05T05:42:00.784Z,12.64
2022-10-05T05:43:00.825Z,12.64
2022-10-05T05:44:00.831Z,12.62
2022-10-05T05:45:00.843Z,12.65
2022-10-05T05:46:00.811Z,12.65
2022-10-05T05:47:05.353Z,12.64
2022-10-05T05:48:00.843Z,12.64
2022-10-05T05:49:00.864Z,12.65
2022-10-05T05:50:06.330Z,12.64
2022-10-05T05:51:01.661Z,12.65
2022-10-05T05:52:00.903Z,12.67
2022-10-05T05:53:00.836Z,12.68
2022-10-05T05:54:00.742Z,12.68
2022-10-05T05:55:00.891Z,12.73
2022-10-05T05:56:00.702Z,12.72
2022-10-05T05:57:00.575Z,12.72
2022-10-05T05:58:00.560Z,12.70
2022-10-05T05:59:00.564Z,12.72
2022-10-05T06:00:00.548Z,12.72
2022-10-05T06:01:00.546Z,12.73
2022-10-05T06:02:00.599Z,12.75
2022-10-05T06:03:00.689Z,12.75
2022-10-05T06:04:00.484Z,12.76
2022-10-05T06:05:00.504Z,12.78
2022-10-05T06:06:00.495Z,12.80
2022-10-05T06:07:00.467Z,12.83
2022-10-05T06:08:00.484Z,12.83
2022-10-05T06:09:00.476Z,12.85
2022-10-05T06:10:00.428Z,12.85
2022-10-05T06:11:00.425Z,12.86
2022-10-05T06:12:00.427Z,12.90
2022-10-05T06:13:01.801Z,12.91
2022-10-05T06:14:00.400Z,12.93
2022-10-05T06:15:00.369Z,12.95
2022-10-05T06:16:00.370Z,12.95
2022-10-05T06:17:00.352Z,13.00
2022-10-05T06:18:00.359Z,13.00
2022-10-05T06:19:00.328Z,13.03
2022-10-05T06:20:04.967Z,13.05
2022-10-05T06:21:01.316Z,13.09
2022-10-05T06:22:00.323Z,13.09
2022-10-05T06:23:00.280Z,13.09
2022-10-05T06:24:00.281Z,13.12
2022-10-05T06:25:00.259Z,13.13
2022-10-05T06:26:00.248Z,13.16
2022-10-05T06:27:00.260Z,13.16
2022-10-05T06:28:00.319Z,13.18
2022-10-05T06:29:00.216Z,13.20
2022-10-05T06:30:00.204Z,13.20
2022-10-05T06:31:00.232Z,13.23
2022-10-05T06:32:00.301Z,13.25
2022-10-05T06:33:00.169Z,13.25
2022-10-05T06:34:00.149Z,13.30
2022-10-05T06:35:00.182Z,13.31
2022-10-05T06:36:00.132Z,13.31
2022-10-05T06:37:00.161Z,13.35
2022-10-05T06:38:00.133Z,13.37
2022-10-05T06:39:00.105Z,13.37
2022-10-05T06:40:01.243Z,13.39
2022-10-05T06:41:00.101Z,13.41
2022-10-05T06:42:00.097Z,13.42
2022-10-05T06:43:00.049Z,13.42
2022-10-05T06:44:00.041Z,13.46
2022-10-05T06:45:00.029Z,13.49
2022-10-05T06:46:00.088Z,13.49
2022-10-05T06:47:00.028Z,13.49
2022-10-05T06:48:04.949Z,13.52
2022-10-05T06:49:00.991Z,13.52
2022-10-05T06:50:00.869Z,13.52
2022-10-05T06:50:59.990Z,13.54
2022-10-05T06:51:59.968Z,13.56
2022-10-05T06:52:59.957Z,13.56
2022-10-05T06:53:59.924Z,13.57
2022-10-05T06:54:59.922Z,13.57
2022-10-05T06:55:59.916Z,13.59
2022-10-05T06:57:00.101Z,13.62
2022-10-05T06:57:59.910Z,13.63
2022-10-05T06:59:00.177Z,13.63
2022-10-05T06:59:59.869Z,13.65
2022-10-05T07:00:59.887Z,13.65
2022-10-05T07:01:59.902Z,13.67
2022-10-05T07:02:59.837Z,13.68
2022-10-05T07:03:59.820Z,13.68
2022-10-05T07:04:59.845Z,13.70
2022-10-05T07:05:59.802Z,13.72
2022-10-05T07:06:59.800Z,13.71
2022-10-05T07:07:59.773Z,13.72
2022-10-05T07:08:59.764Z,13.75
2022-10-05T07:09:59.770Z,13.77
2022-10-05T07:10:59.755Z,13.77
2022-10-05T07:12:04.527Z,13.79
2022-10-05T07:13:00.744Z,13.79
2022-10-05T07:13:59.725Z,13.81
2022-10-05T07:14:59.689Z,13.83
2022-10-05T07:15:59.710Z,13.86
2022-10-05T07:16:59.693Z,13.87
2022-10-05T07:17:59.654Z,13.89
2022-10-05T07:18:59.680Z,13.90
2022-10-05T07:19:59.622Z,13.90
2022-10-05T07:20:59.653Z,13.92
2022-10-05T07:21:59.678Z,13.95
2022-10-05T07:22:59.602Z,13.96
2022-10-05T07:23:59.613Z,13.97
2022-10-05T07:24:59.673Z,14.03
2022-10-05T07:25:59.574Z,14.04
2022-10-05T07:26:59.566Z,14.03
2022-10-05T07:27:59.570Z,14.04
2022-10-05T07:28:59.554Z,14.05
2022-10-05T07:29:59.705Z,14.05
2022-10-05T07:30:59.582Z,14.08
2022-10-05T07:31:59.501Z,14.10
2022-10-05T07:32:59.523Z,14.14
2022-10-05T07:33:59.474Z,14.15
2022-10-05T07:34:59.493Z,14.15
2022-10-05T07:35:59.499Z,14.18
2022-10-05T07:36:59.657Z,14.20
2022-10-05T07:37:59.423Z,14.23
2022-10-05T07:38:59.460Z,14.25
2022-10-05T07:40:00.828Z,14.26
2022-10-05T07:40:59.424Z,14.29
2022-10-05T07:41:59.415Z,14.32
2022-10-05T07:42:59.399Z,14.33
2022-10-05T07:44:03.441Z,14.36
2022-10-05T07:44:59.376Z,14.37
2022-10-05T07:45:59.378Z,14.41
2022-10-05T07:46:59.412Z,14.43
2022-10-05T07:47:59.327Z,14.45
2022-10-05T07:48:59.340Z,14.45
2022-10-05T07:49:59.297Z,14.48
2022-10-05T07:50:59.288Z,14.50
2022-10-05T07:51:59.275Z,14.54
2022-10-05T07:52:59.287Z,14.58
2022-10-05T07:53:59.251Z,14.58
2022-10-05T07:54:59.258Z,14.59
2022-10-05T07:55:59.227Z,14.62
2022-10-05T07:56:59.255Z,14.63
2022-10-05T07:57:59.227Z,14.65
2022-10-05T07:58:59.199Z,14.68
2022-10-05T07:59:59.217Z,14.68
2022-10-05T08:00:59.170Z,14.70
2022-10-05T08:01:59.291Z,14.70
2022-10-05T08:02:59.319Z,14.73
2022-10-05T08:03:59.146Z,14.77
2022-10-05T08:04:59.119Z,14.78
2022-10-05T08:05:59.135Z,14.79
2022-10-05T08:06:59.136Z,14.82
2022-10-05T08:07:59.188Z,14.85
2022-10-05T08:08:59.216Z,14.86
2022-10-05T08:09:59.208Z,14.88
2022-10-05T08:10:59.194Z,14.88
2022-10-05T08:11:59.252Z,14.88
2022-10-05T08:12:59.293Z,14.89
2022-10-05T08:13:59.041Z,14.89
2022-10-05T08:14:59.014Z,14.92
2022-10-05T08:15:59.052Z,14.94
2022-10-05T08:16:59.006Z,14.96
2022-10-05T08:17:59.012Z,14.97
2022-10-05T08:18:58.967Z,14.97
2022-10-05T08:19:58.959Z,14.99
2022-10-05T08:20:58.951Z,15.00
2022-10-05T08:21:58.967Z,15.02
2022-10-05T08:22:58.922Z,15.03
2022-10-05T08:23:58.931Z,15.03
2022-10-05T08:24:58.919Z,15.06
2022-10-05T08:25:58.940Z,15.07
2022-10-05T08:26:58.879Z,15.07
2022-10-05T08:27:58.955Z,15.06
2022-10-05T08:28:58.855Z,15.07
2022-10-05T08:29:58.880Z,15.09
2022-10-05T08:30:58.856Z,15.09
2022-10-05T08:31:58.838Z,15.09
2022-10-05T08:32:58.810Z,15.11
2022-10-05T08:33:58.830Z,15.11
2022-10-05T08:34:58.804Z,15.14
2022-10-05T08:35:58.785Z,15.14
2022-10-05T08:36:58.759Z,15.14
2022-10-05T08:37:58.779Z,15.14
2022-10-05T08:38:59.075Z,15.14
2022-10-05T08:39:58.739Z,15.15
2022-10-05T08:40:58.740Z,15.17
2022-10-05T08:41:58.712Z,15.15
2022-10-05T08:42:58.706Z,15.19
2022-10-05T08:43:58.697Z,15.19
2022-10-05T08:44:58.692Z,15.21
2022-10-05T08:45:58.723Z,15.19
2022-10-05T08:46:58.652Z,15.21
2022-10-05T08:47:58.643Z,15.21
2022-10-05T08:48:58.644Z,15.22
2022-10-05T08:49:58.673Z,15.24
2022-10-05T08:50:58.608Z,15.25
2022-10-05T08:51:58.605Z,15.27
2022-10-05T08:52:58.585Z,15.31
2022-10-05T08:53:58.584Z,15.33
2022-10-05T08:54:58.564Z,15.33
2022-10-05T08:55:58.651Z,15.36
2022-10-05T08:56:58.567Z,15.36
2022-10-05T08:57:58.528Z,15.37
2022-10-05T08:58:59.214Z,15.37
2022-10-05T08:59:58.506Z,15.39
2022-10-05T09:00:58.657Z,15.40
2022-10-05T09:01:58.544Z,15.42
2022-10-05T09:02:58.639Z,15.43
2022-10-05T09:03:58.455Z,15.46
2022-10-05T09:04:58.509Z,15.47
2022-10-05T09:05:58.457Z,15.47
2022-10-05T09:06:58.426Z,15.51
2022-10-05T09:07:58.446Z,15.52
2022-10-05T09:08:58.576Z,15.54
2022-10-05T09:10:01.719Z,15.55
2022-10-05T09:10:58.444Z,15.57
2022-10-05T09:11:58.493Z,15.59
2022-10-05T09:12:58.479Z,15.59
2022-10-05T09:13:58.392Z,15.62
2022-10-05T09:15:23.773Z,15.64
2022-10-05T09:15:59.371Z,15.64
2022-10-05T09:16:58.397Z,15.67
2022-10-05T09:17:58.363Z,15.65
2022-10-05T09:18:58.547Z,15.70
2022-10-05T09:19:58.382Z,15.72
2022-10-05T09:20:58.536Z,15.76
2022-10-05T09:21:58.267Z,15.77
2022-10-05T09:22:58.261Z,15.77
2022-10-05T09:23:58.444Z,15.77
2022-10-05T09:24:58.298Z,15.80
2022-10-05T09:25:58.336Z,15.80
2022-10-05T09:26:58.253Z,15.82
2022-10-05T09:27:58.494Z,15.83
2022-10-05T09:28:58.291Z,15.83
2022-10-05T09:29:58.209Z,15.86
2022-10-05T09:30:58.210Z,15.90
2022-10-05T09:31:58.136Z,15.94
2022-10-05T09:32:58.133Z,15.94
2022-10-05T09:33:58.128Z,15.95
2022-10-05T09:34:58.123Z,16.00
2022-10-05T09:35:58.122Z,16.02
2022-10-05T09:36:58.088Z,16.05
2022-10-05T09:37:58.089Z,16.08
2022-10-05T09:38:58.179Z,16.10
2022-10-05T09:40:01.372Z,16.09
2022-10-05T09:40:58.042Z,16.10
2022-10-05T09:41:58.239Z,16.15
2022-10-05T09:42:58.015Z,16.17
2022-10-05T09:43:58.041Z,16.20
2022-10-05T09:44:57.993Z,16.20
2022-10-05T09:45:58.026Z,16.20
2022-10-05T09:46:57.978Z,16.20
2022-10-05T09:47:58.018Z,16.17
2022-10-05T09:48:57.959Z,16.21
2022-10-05T09:49:57.964Z,16.21
2022-10-05T09:50:57.911Z,16.23
2022-10-05T09:51:57.924Z,16.24
2022-10-05T09:52:57.898Z,16.26
2022-10-05T09:53:57.932Z,16.26
2022-10-05T09:54:57.884Z,16.29
2022-10-05T09:55:57.880Z,16.32
2022-10-05T09:56:57.852Z,16.35
2022-10-05T09:57:57.885Z,16.36
2022-10-05T09:58:57.913Z,16.39
2022-10-05T09:59:57.943Z,16.43
2022-10-05T10:01:08.902Z,16.46
2022-10-05T10:01:58.893Z,16.47
2022-10-05T10:02:58.073Z,16.50
2022-10-05T10:03:57.994Z,16.51
2022-10-05T10:04:58.030Z,16.54
2022-10-05T10:05:57.860Z,16.57
2022-10-05T10:06:58.085Z,16.64
2022-10-05T10:07:58.098Z,16.69
2022-10-05T10:08:57.904Z,16.72
2022-10-05T10:09:57.876Z,16.72
2022-10-05T10:10:57.997Z,16.71
2022-10-05T10:11:57.852Z,16.74
2022-10-05T10:12:57.981Z,16.75
2022-10-05T10:13:57.888Z,16.78
2022-10-05T10:15:02.519Z,16.75
2022-10-05T10:15:58.845Z,16.76
2022-10-05T10:16:57.852Z,16.79
2022-10-05T10:17:57.892Z,16.86
2022-10-05T10:18:58.416Z,16.83
2022-10-05T10:19:57.604Z,16.84
2022-10-05T10:20:57.627Z,16.86
2022-10-05T10:21:57.595Z,16.90
2022-10-05T10:22:57.569Z,16.93
2022-10-05T10:23:57.584Z,16.96
2022-10-05T10:24:57.538Z,16.99
2022-10-05T10:25:57.564Z,16.96
2022-10-05T10:26:57.545Z,16.93
2022-10-05T10:27:57.538Z,16.94
2022-10-05T10:28:57.487Z,16.97
2022-10-05T10:29:57.521Z,17.01
2022-10-05T10:30:57.559Z,17.06
2022-10-05T10:31:57.486Z,17.09
2022-10-05T10:32:57.460Z,17.09
2022-10-05T10:33:57.446Z,17.08
2022-10-05T10:34:57.457Z,17.06
2022-10-05T10:35:58.796Z,17.08
2022-10-05T10:36:57.410Z,17.09
2022-10-05T10:37:57.409Z,17.08
2022-10-05T10:38:57.411Z,17.08
2022-10-05T10:39:57.378Z,17.05
2022-10-05T10:40:57.358Z,17.06
2022-10-05T10:41:57.358Z,17.08
2022-10-05T10:42:57.355Z,17.11
2022-10-05T10:43:57.372Z,17.16
2022-10-05T10:44:57.337Z,17.19
2022-10-05T10:45:57.395Z,17.19
2022-10-05T10:46:57.352Z,17.19
2022-10-05T10:47:57.289Z,17.20
2022-10-05T10:48:57.280Z,17.22
2022-10-05T10:49:57.284Z,17.23
2022-10-05T10:50:57.249Z,17.26
2022-10-05T10:51:57.240Z,17.30
2022-10-05T10:52:57.221Z,17.33
2022-10-05T10:53:57.236Z,17.36
2022-10-05T10:54:57.350Z,17.36
2022-10-05T10:55:57.210Z,17.39
2022-10-05T10:56:57.193Z,17.44
2022-10-05T10:57:57.172Z,17.48
2022-10-05T10:58:57.174Z,17.46
2022-10-05T10:59:57.160Z,17.48
2022-10-05T11:00:57.132Z,17.44
2022-10-05T11:01:57.206Z,17.45
2022-10-05T11:02:57.250Z,17.45
2022-10-05T11:03:57.122Z,17.42
2022-10-05T11:04:57.101Z,17.41
2022-10-05T11:05:57.092Z,17.42
2022-10-05T11:06:57.088Z,17.44
2022-10-05T11:07:57.091Z,17.45
2022-10-05T11:08:57.081Z,17.44
2022-10-05T11:09:57.040Z,17.42
2022-10-05T11:10:57.024Z,17.41
2022-10-05T11:11:57.040Z,17.41
2022-10-05T11:12:57.006Z,17.38
2022-10-05T11:13:57.021Z,17.39
2022-10-05T11:14:56.973Z,17.39
2022-10-05T11:15:57.112Z,17.42
2022-10-05T11:16:57.245Z,17.45
2022-10-05T11:17:57.345Z,17.49
2022-10-05T11:18:56.946Z,17.52
2022-10-05T11:20:03.943Z,17.56
2022-10-05T11:20:57.961Z,17.60
2022-10-05T11:21:56.906Z,17.60
2022-10-05T11:22:56.888Z,17.64
2022-10-05T11:23:56.910Z,17.70
2022-10-05T11:24:57.287Z,17.74
2022-10-05T11:25:56.854Z,17.74
2022-10-05T11:26:56.858Z,17.76
2022-10-05T11:27:56.876Z,17.76
2022-10-05T11:28:56.814Z,17.78
2022-10-05T11:29:56.830Z,17.74
2022-10-05T11:30:56.831Z,17.78
2022-10-05T11:31:56.827Z,17.78
2022-10-05T11:32:56.797Z,17.80
2022-10-05T11:33:56.768Z,17.80
2022-10-05T11:34:56.754Z,17.83
2022-10-05T11:35:56.743Z,17.86
2022-10-05T11:36:56.738Z,17.86
2022-10-05T11:37:56.768Z,17.85
2022-10-05T11:38:56.719Z,17.80
2022-10-05T11:39:56.706Z,17.82
2022-10-05T11:40:56.717Z,17.80
2022-10-05T11:41:56.703Z,17.83
2022-10-05T11:42:56.679Z,17.85
2022-10-05T11:43:56.691Z,17.83
2022-10-05T11:44:56.638Z,17.83
2022-10-05T11:45:56.631Z,17.90
2022-10-05T11:46:56.828Z,17.90
2022-10-05T11:47:56.647Z,17.92
2022-10-05T11:48:56.633Z,17.94
2022-10-05T11:49:56.600Z,17.95
2022-10-05T11:50:56.577Z,17.98
2022-10-05T11:51:56.568Z,18.01
2022-10-05T11:52:56.561Z,18.04
2022-10-05T11:53:56.562Z,18.03
2022-10-05T11:55:10.433Z,18.05
2022-10-05T11:55:57.518Z,18.04
2022-10-05T11:56:56.826Z,18.03
2022-10-05T11:57:56.490Z,18.04
2022-10-05T11:58:56.474Z,18.03
2022-10-05T11:59:56.501Z,18.01
2022-10-05T12:00:56.453Z,17.97
2022-10-05T12:01:56.467Z,17.95
2022-10-05T12:02:56.496Z,17.95
2022-10-05T12:03:56.513Z,17.92
2022-10-05T12:04:56.430Z,17.92
2022-10-05T12:05:56.414Z,17.90
2022-10-05T12:06:56.395Z,17.95
2022-10-05T12:07:56.991Z,17.98
2022-10-05T12:08:56.395Z,18.04
2022-10-05T12:09:56.391Z,18.08
2022-10-05T12:10:56.344Z,18.15
2022-10-05T12:11:58.039Z,18.15
2022-10-05T12:12:56.707Z,18.18
2022-10-05T12:13:56.310Z,18.19
2022-10-05T12:14:56.461Z,18.20
2022-10-05T12:15:56.366Z,18.22
2022-10-05T12:16:56.286Z,18.23
2022-10-05T12:17:56.265Z,18.23
2022-10-05T12:18:56.265Z,18.33
2022-10-05T12:19:56.246Z,18.31
2022-10-05T12:20:56.255Z,18.25
2022-10-05T12:21:56.223Z,18.26
2022-10-05T12:22:56.749Z,18.26
2022-10-05T12:23:56.203Z,18.33
2022-10-05T12:24:56.198Z,18.40
2022-10-05T12:25:56.236Z,18.41
2022-10-05T12:26:56.167Z,18.45
2022-10-05T12:27:56.392Z,18.56
2022-10-05T12:28:56.166Z,18.71
2022-10-05T12:29:56.131Z,18.81
2022-10-05T12:30:56.156Z,18.84
2022-10-05T12:31:56.131Z,18.88
2022-10-05T12:33:01.615Z,18.93
2022-10-05T12:33:57.099Z,18.98
2022-10-05T12:35:01.511Z,19.12
2022-10-05T12:35:57.620Z,19.33
2022-10-05T12:37:04.410Z,19.39
2022-10-05T12:37:57.050Z,19.49
2022-10-05T12:38:56.030Z,19.63
2022-10-05T12:39:56.110Z,19.71
2022-10-05T12:40:55.996Z,19.84
2022-10-05T12:41:56.005Z,19.99
2022-10-05T12:42:56.001Z,20.11
2022-10-05T12:43:55.973Z,20.13
2022-10-05T12:44:55.988Z,20.19
2022-10-05T12:45:56.019Z,20.14
2022-10-05T12:46:55.973Z,19.91
2022-10-05T12:47:55.927Z,19.81
2022-10-05T12:48:55.929Z,19.94
2022-10-05T12:49:55.921Z,19.99
2022-10-05T12:50:55.901Z,20.00
2022-10-05T12:51:55.902Z,20.09